sensor_id;sensor_type;location;lat;lon;timestamp;pressure;altitude;pressure_sealevel;temperature;humidity
70841;BME280;58465;51.534;9.934;2022-11-12T16:45:50;101462.88;;;10.22;74.63
70841;BME280;58465;51.534;9.934;2022-11-12T16:48:20;101475.28;;;10.17;74.99
70841;BME280;58465;51.534;9.934;2022-11-12T16:50:47;101475.28;;;10.14;74.90
70841;BME280;58465;51.534;9.934;2022-11-12T16:53:12;101484.19;;;10.16;74.90
70841;BME280;58465;51.534;9.934;2022-11-12T16:55:38;101483.31;;;10.16;74.89
70841;BME280;58465;51.534;9.934;2022-11-12T16:58:03;101480.59;;;9.99;75.15
70841;BME280;58465;51.534;9.934;2022-11-12T17:00:28;101488.59;;;9.90;75.50
70841;BME280;58465;51.534;9.934;2022-11-12T17:02:53;101493.88;;;9.85;75.62
70841;BME280;58465;51.534;9.934;2022-11-12T17:05:21;101487.66;;;9.83;75.58
70841;BME280;58465;51.534;9.934;2022-11-12T17:07:48;101485.00;;;9.91;75.22
70841;BME280;58465;51.534;9.934;2022-11-12T17:10:13;101484.16;;;9.98;74.82
70841;BME280;58465;51.534;9.934;2022-11-12T17:12:39;101485.91;;;9.96;74.47
70841;BME280;58465;51.534;9.934;2022-11-12T17:15:05;101489.44;;;9.90;74.33
70841;BME280;58465;51.534;9.934;2022-11-12T17:17:31;101485.00;;;9.80;74.82
70841;BME280;58465;51.534;9.934;2022-11-12T17:19:56;101484.06;;;9.75;74.83
70841;BME280;58465;51.534;9.934;2022-11-12T17:22:22;101486.72;;;9.72;74.80
70841;BME280;58465;51.534;9.934;2022-11-12T17:24:47;101486.72;;;9.69;74.73
70841;BME280;58465;51.534;9.934;2022-11-12T17:27:12;101487.56;;;9.63;74.54
70841;BME280;58465;51.534;9.934;2022-11-12T17:29:37;101489.34;;;9.64;75.06
70841;BME280;58465;51.534;9.934;2022-11-12T17:32:03;101496.50;;;9.68;74.87
70841;BME280;58465;51.534;9.934;2022-11-12T17:34:29;101498.25;;;9.71;75.11
70841;BME280;58465;51.534;9.934;2022-11-12T17:36:54;101498.28;;;9.73;75.05
70841;BME280;58465;51.534;9.934;2022-11-12T17:39:20;101496.41;;;9.50;75.07
70841;BME280;58465;51.534;9.934;2022-11-12T17:41:45;101501.69;;;9.44;74.93
70841;BME280;58465;51.534;9.934;2022-11-12T17:44:14;101497.22;;;9.37;74.98
70841;BME280;58465;51.534;9.934;2022-11-12T17:46:41;101492.72;;;9.27;75.11
70841;BME280;58465;51.534;9.934;2022-11-12T17:49:06;101494.50;;;9.28;74.76
70841;BME280;58465;51.534;9.934;2022-11-12T17:51:32;101492.66;;;9.12;75.09
70841;BME280;58465;51.534;9.934;2022-11-12T17:53:57;101493.41;;;8.96;76.05
70841;BME280;58465;51.534;9.934;2022-11-12T17:56:23;101491.53;;;8.82;76.42
70841;BME280;58465;51.534;9.934;2022-11-12T17:58:49;101484.50;;;8.90;76.19
70841;BME280;58465;51.534;9.934;2022-11-12T18:01:23;101492.47;;;8.89;76.19
70841;BME280;58465;51.534;9.934;2022-11-12T18:03:50;101483.53;;;8.79;76.78
70841;BME280;58465;51.534;9.934;2022-11-12T18:06:26;101476.31;;;8.66;77.20
70841;BME280;58465;51.534;9.934;2022-11-12T18:08:57;101481.59;;;8.60;77.88
70841;BME280;58465;51.534;9.934;2022-11-12T18:11:23;101476.22;;;8.54;78.11
70841;BME280;58465;51.534;9.934;2022-11-12T18:13:49;101477.09;;;8.53;78.70
70841;BME280;58465;51.534;9.934;2022-11-12T18:16:23;101474.38;;;8.47;78.35
70841;BME280;58465;51.534;9.934;2022-11-12T18:18:52;101483.16;;;8.37;78.31
70841;BME280;58465;51.534;9.934;2022-11-12T18:21:17;101475.06;;;8.29;78.44
70841;BME280;58465;51.534;9.934;2022-11-12T18:23:43;101475.03;;;8.25;79.36
70841;BME280;58465;51.534;9.934;2022-11-12T18:26:10;101474.06;;;8.16;79.27
70841;BME280;58465;51.534;9.934;2022-11-12T18:28:39;101480.28;;;8.15;79.33
70841;BME280;58465;51.534;9.934;2022-11-12T18:31:06;101480.19;;;8.11;79.46
70841;BME280;58465;51.534;9.934;2022-11-12T18:33:31;101485.50;;;8.06;79.39
70841;BME280;58465;51.534;9.934;2022-11-12T18:36:09;101482.78;;;8.03;79.63
70841;BME280;58465;51.534;9.934;2022-11-12T18:38:35;101487.19;;;8.00;79.69
70841;BME280;58465;51.534;9.934;2022-11-12T18:41:05;101480.03;;;7.94;79.47
70841;BME280;58465;51.534;9.934;2022-11-12T18:43:31;101468.53;;;7.98;79.27
70841;BME280;58465;51.534;9.934;2022-11-12T18:45:58;101479.16;;;7.98;79.67
70841;BME280;58465;51.534;9.934;2022-11-12T18:48:26;101472.84;;;7.86;79.63
70841;BME280;58465;51.534;9.934;2022-11-12T18:50:52;101477.22;;;7.82;79.98
70841;BME280;58465;51.534;9.934;2022-11-12T18:53:17;101471.88;;;7.79;79.96
70841;BME280;58465;51.534;9.934;2022-11-12T18:55:43;101473.59;;;7.74;79.84
70841;BME280;58465;51.534;9.934;2022-11-12T18:58:08;101471.75;;;7.70;80.04
70841;BME280;58465;51.534;9.934;2022-11-12T19:00:33;101480.63;;;7.67;80.08
70841;BME280;58465;51.534;9.934;2022-11-12T19:02:59;101477.03;;;7.65;80.16
70841;BME280;58465;51.534;9.934;2022-11-12T19:05:25;101469.03;;;7.64;80.28
70841;BME280;58465;51.534;9.934;2022-11-12T19:07:50;101462.78;;;7.60;80.26
70841;BME280;58465;51.534;9.934;2022-11-12T19:10:15;101466.31;;;7.58;80.16
70841;BME280;58465;51.534;9.934;2022-11-12T19:12:41;101462.78;;;7.59;80.40
70841;BME280;58465;51.534;9.934;2022-11-12T19:15:07;101459.22;;;7.58;80.40
70841;BME280;58465;51.534;9.934;2022-11-12T19:17:32;101470.72;;;7.56;80.33
70841;BME280;58465;51.534;9.934;2022-11-12T19:19:57;101466.25;;;7.53;80.26
70841;BME280;58465;51.534;9.934;2022-11-12T19:22:23;101466.19;;;7.50;80.16
70841;BME280;58465;51.534;9.934;2022-11-12T19:24:48;101461.75;;;7.48;80.03
70841;BME280;58465;51.534;9.934;2022-11-12T19:27:13;101465.22;;;7.42;80.28
70841;BME280;58465;51.534;9.934;2022-11-12T19:29:38;101448.25;;;7.32;80.29
70841;BME280;58465;51.534;9.934;2022-11-12T19:32:04;101455.31;;;7.29;80.21
70841;BME280;58465;51.534;9.934;2022-11-12T19:34:29;101457.91;;;7.24;80.16
70841;BME280;58465;51.534;9.934;2022-11-12T19:36:54;101451.59;;;7.16;80.49
70841;BME280;58465;51.534;9.934;2022-11-12T19:39:20;101455.06;;;7.11;80.56
70841;BME280;58465;51.534;9.934;2022-11-12T19:41:45;101449.75;;;7.12;80.55
70841;BME280;58465;51.534;9.934;2022-11-12T19:44:10;101449.72;;;7.09;80.53
70841;BME280;58465;51.534;9.934;2022-11-12T19:46:36;101450.63;;;7.13;80.23
70841;BME280;58465;51.534;9.934;2022-11-12T19:49:01;101447.06;;;7.09;80.10
70841;BME280;58465;51.534;9.934;2022-11-12T19:51:26;101463.78;;;7.00;79.98
70841;BME280;58465;51.534;9.934;2022-11-12T19:53:52;101453.94;;;6.95;80.12
70841;BME280;58465;51.534;9.934;2022-11-12T19:56:17;101449.34;;;6.85;79.99
70841;BME280;58465;51.534;9.934;2022-11-12T19:58:45;101441.38;;;6.82;80.17
70841;BME280;58465;51.534;9.934;2022-11-12T20:01:13;101443.97;;;6.79;80.34
70841;BME280;58465;51.534;9.934;2022-11-12T20:03:39;101445.75;;;6.80;80.28
70841;BME280;58465;51.534;9.934;2022-11-12T20:06:07;101448.28;;;6.74;79.94
70841;BME280;58465;51.534;9.934;2022-11-12T20:08:33;101441.13;;;6.68;80.19
70841;BME280;58465;51.534;9.934;2022-11-12T20:10:59;101444.59;;;6.64;80.25
70841;BME280;58465;51.534;9.934;2022-11-12T20:13:25;101441.03;;;6.60;80.39
70841;BME280;58465;51.534;9.934;2022-11-12T20:15:50;101430.50;;;6.66;80.63
70841;BME280;58465;51.534;9.934;2022-11-12T20:18:15;101436.78;;;6.72;80.28
70841;BME280;58465;51.534;9.934;2022-11-12T20:20:46;101441.28;;;6.77;80.25
70841;BME280;58465;51.534;9.934;2022-11-12T20:23:12;101432.38;;;6.74;80.37
70841;BME280;58465;51.534;9.934;2022-11-12T20:25:37;101428.78;;;6.70;79.93
70841;BME280;58465;51.534;9.934;2022-11-12T20:28:02;101439.53;;;6.78;80.14
70841;BME280;58465;51.534;9.934;2022-11-12T20:30:28;101443.13;;;6.83;80.05
70841;BME280;58465;51.534;9.934;2022-11-12T20:32:54;101434.13;;;6.72;79.85
70841;BME280;58465;51.534;9.934;2022-11-12T20:35:19;101443.81;;;6.69;79.94
70841;BME280;58465;51.534;9.934;2022-11-12T20:37:44;101434.00;;;6.65;79.95
70841;BME280;58465;51.534;9.934;2022-11-12T20:40:09;101435.69;;;6.59;79.90
70841;BME280;58465;51.534;9.934;2022-11-12T20:42:35;101431.19;;;6.55;79.88
70841;BME280;58465;51.534;9.934;2022-11-12T20:45:00;101431.22;;;6.56;80.01
70841;BME280;58465;51.534;9.934;2022-11-12T20:47:25;101430.31;;;6.56;79.95
70841;BME280;58465;51.534;9.934;2022-11-12T20:49:51;101432.06;;;6.54;79.88
70841;BME280;58465;51.534;9.934;2022-11-12T20:52:16;101434.63;;;6.48;79.57
70841;BME280;58465;51.534;9.934;2022-11-12T20:54:42;101432.78;;;6.42;79.76
70841;BME280;58465;51.534;9.934;2022-11-12T20:57:07;101431.88;;;6.42;79.86
70841;BME280;58465;51.534;9.934;2022-11-12T20:59:33;101428.41;;;6.47;79.76
70841;BME280;58465;51.534;9.934;2022-11-12T21:02:04;101428.47;;;6.50;79.19
70841;BME280;58465;51.534;9.934;2022-11-12T21:04:30;101430.22;;;6.48;79.22
70841;BME280;58465;51.534;9.934;2022-11-12T21:06:55;101424.00;;;6.48;79.24
70841;BME280;58465;51.534;9.934;2022-11-12T21:09:20;101424.19;;;6.58;79.02
70841;BME280;58465;51.534;9.934;2022-11-12T21:11:46;101421.72;;;6.70;78.51
70841;BME280;58465;51.534;9.934;2022-11-12T21:14:11;101422.66;;;6.76;77.96
70841;BME280;58465;51.534;9.934;2022-11-12T21:16:38;101413.84;;;6.77;77.78
70841;BME280;58465;51.534;9.934;2022-11-12T21:19:03;101408.44;;;6.70;77.75
70841;BME280;58465;51.534;9.934;2022-11-12T21:21:29;101411.13;;;6.74;77.46
70841;BME280;58465;51.534;9.934;2022-11-12T21:23:55;101412.75;;;6.62;77.86
70841;BME280;58465;51.534;9.934;2022-11-12T21:26:21;101402.81;;;6.51;77.87
70841;BME280;58465;51.534;9.934;2022-11-12T21:28:52;101405.66;;;6.61;77.92
70841;BME280;58465;51.534;9.934;2022-11-12T21:31:19;101404.72;;;6.59;77.87
70841;BME280;58465;51.534;9.934;2022-11-12T21:33:56;101397.75;;;6.66;77.64
70841;BME280;58465;51.534;9.934;2022-11-12T21:36:22;101396.09;;;6.74;77.60
70841;BME280;58465;51.534;9.934;2022-11-12T21:38:48;101401.53;;;6.82;77.38
70841;BME280;58465;51.534;9.934;2022-11-12T21:41:16;101396.31;;;6.89;76.72
70841;BME280;58465;51.534;9.934;2022-11-12T21:43:43;101390.94;;;6.85;76.76
70841;BME280;58465;51.534;9.934;2022-11-12T21:46:14;101394.50;;;6.87;76.47
70841;BME280;58465;51.534;9.934;2022-11-12T21:48:40;101396.25;;;6.85;76.58
70841;BME280;58465;51.534;9.934;2022-11-12T21:51:07;101399.72;;;6.79;76.39
70841;BME280;58465;51.534;9.934;2022-11-12T21:53:33;101395.28;;;6.80;76.57
70841;BME280;58465;51.534;9.934;2022-11-12T21:56:03;101389.06;;;6.78;76.47
70841;BME280;58465;51.534;9.934;2022-11-12T21:58:28;101387.28;;;6.77;76.30
70841;BME280;58465;51.534;9.934;2022-11-12T22:00:54;101388.13;;;6.73;76.31
70841;BME280;58465;51.534;9.934;2022-11-12T22:03:19;101388.94;;;6.68;76.05
70841;BME280;58465;51.534;9.934;2022-11-12T22:05:44;101384.44;;;6.64;75.97
70841;BME280;58465;51.534;9.934;2022-11-12T22:08:10;101386.22;;;6.65;76.02
70841;BME280;58465;51.534;9.934;2022-11-12T22:10:35;101381.75;;;6.61;75.89
70841;BME280;58465;51.534;9.934;2022-11-12T22:13:00;101387.81;;;6.54;76.21
70841;BME280;58465;51.534;9.934;2022-11-12T22:15:26;101384.88;;;6.36;76.61
70841;BME280;58465;51.534;9.934;2022-11-12T22:17:51;101389.22;;;6.29;77.01
70841;BME280;58465;51.534;9.934;2022-11-12T22:20:17;101382.09;;;6.27;77.36
70841;BME280;58465;51.534;9.934;2022-11-12T22:22:42;101382.91;;;6.23;77.36
70841;BME280;58465;51.534;9.934;2022-11-12T22:25:07;101381.03;;;6.17;77.29
70841;BME280;58465;51.534;9.934;2022-11-12T22:27:33;101375.69;;;6.13;77.38
70841;BME280;58465;51.534;9.934;2022-11-12T22:29:58;101372.97;;;6.10;77.39
70841;BME280;58465;51.534;9.934;2022-11-12T22:32:23;101373.75;;;6.04;77.55
70841;BME280;58465;51.534;9.934;2022-11-12T22:34:49;101369.28;;;6.02;77.71
70841;BME280;58465;51.534;9.934;2022-11-12T22:37:14;101361.41;;;6.05;77.55
70841;BME280;58465;51.534;9.934;2022-11-12T22:39:39;101356.97;;;6.04;77.45
70841;BME280;58465;51.534;9.934;2022-11-12T22:42:04;101357.81;;;6.03;77.59
70841;BME280;58465;51.534;9.934;2022-11-12T22:44:30;101357.91;;;6.09;77.62
70841;BME280;58465;51.534;9.934;2022-11-12T22:46:55;101359.63;;;6.04;77.78
70841;BME280;58465;51.534;9.934;2022-11-12T22:49:20;101363.28;;;6.12;77.51
70841;BME280;58465;51.534;9.934;2022-11-12T22:51:45;101358.75;;;6.06;77.59
70841;BME280;58465;51.534;9.934;2022-11-12T22:54:11;101350.66;;;5.99;77.69
70841;BME280;58465;51.534;9.934;2022-11-12T22:56:39;101344.41;;;5.93;77.62
70841;BME280;58465;51.534;9.934;2022-11-12T22:59:04;101340.84;;;5.91;77.85
70841;BME280;58465;51.534;9.934;2022-11-12T23:01:32;101339.06;;;5.92;77.49
70841;BME280;58465;51.534;9.934;2022-11-12T23:03:59;101334.66;;;5.92;77.43
70841;BME280;58465;51.534;9.934;2022-11-12T23:06:25;101337.31;;;5.92;77.52
70841;BME280;58465;51.534;9.934;2022-11-12T23:08:52;101329.19;;;5.86;77.65
70841;BME280;58465;51.534;9.934;2022-11-12T23:11:18;101336.38;;;5.90;77.85
70841;BME280;58465;51.534;9.934;2022-11-12T23:13:44;101324.06;;;5.92;77.88
70841;BME280;58465;51.534;9.934;2022-11-12T23:16:14;101337.38;;;5.97;77.77
70841;BME280;58465;51.534;9.934;2022-11-12T23:18:40;101332.97;;;5.97;77.52
70841;BME280;58465;51.534;9.934;2022-11-12T23:21:08;101331.16;;;5.93;77.59
70841;BME280;58465;51.534;9.934;2022-11-12T23:23:34;101327.50;;;5.88;77.70
70841;BME280;58465;51.534;9.934;2022-11-12T23:26:08;101329.31;;;5.89;77.75
70841;BME280;58465;51.534;9.934;2022-11-12T23:28:34;101325.78;;;5.90;77.59
70841;BME280;58465;51.534;9.934;2022-11-12T23:31:01;101326.66;;;5.89;77.43
70841;BME280;58465;51.534;9.934;2022-11-12T23:33:26;101331.06;;;5.89;77.46
70841;BME280;58465;51.534;9.934;2022-11-12T23:35:52;101335.75;;;6.04;77.04
70841;BME280;58465;51.534;9.934;2022-11-12T23:38:17;101332.38;;;6.14;76.34
70841;BME280;58465;51.534;9.934;2022-11-12T23:40:51;101319.91;;;6.10;76.42
70841;BME280;58465;51.534;9.934;2022-11-12T23:43:16;101323.50;;;6.12;76.15
70841;BME280;58465;51.534;9.934;2022-11-12T23:45:42;101321.66;;;6.09;75.97
70841;BME280;58465;51.534;9.934;2022-11-12T23:48:07;101322.31;;;5.96;76.50
70841;BME280;58465;51.534;9.934;2022-11-12T23:50:33;101316.94;;;5.90;76.81
70841;BME280;58465;51.534;9.934;2022-11-12T23:52:58;101321.25;;;5.86;76.82
70841;BME280;58465;51.534;9.934;2022-11-12T23:55:23;101314.19;;;5.85;76.89
70841;BME280;58465;51.534;9.934;2022-11-12T23:57:51;101315.94;;;5.85;76.83
